Latest Weather Observations for Shay Gap

IDW60801

Issued at 1:32 pm WST Saturday 23 May 2015 (issued every 30 minutes, with the page automatically refreshed every 10 minutes)

About weather observations | Map of weather stations | Latest weather observations for WA | Other Formats
Station Details ID: 504045 Name: SHAY GAP Lat: -20.43 Lon: 120.13 Height: 173.83 m
Data from the previous 72 hours. | See also: Recent months for locations in Western Australia
Date/Time
WST
Temp
°C
App
Temp
°C
Dew
Point
Rel
Hum
%
Delta-T
°C
Wind Press
QNH
hPa
Press
MSL
hPa
Rain
since 9 am
mm
Dir
 
Spd
km/h
Gust
km/h
Spd
kts
Gust
kts
23/01:30pm 30.4 27.8 9.3 27 11.9 NNW 13 17 7 9 1014.5 1013.7 0.0
23/01:00pm 30.3 27.7 9.2 27 11.9 N 13 20 7 11 1014.8 1014.0 0.0
23/12:30pm 30.4 27.2 9.8 28 11.7 NE 17 22 9 12 1015.2 1014.4 0.0
23/12:00pm 30.0 26.2 9.0 27 11.8 NE 19 28 10 15 1015.6 1014.8 0.0
23/11:30am 30.8 27.3 10.2 28 11.8 NE 19 24 10 13 1016.0 1015.2 0.0
23/11:00am 29.6 26.9 10.2 30 11.1 ENE 15 24 8 13 1016.2 1015.5 0.0
23/10:30am 28.0 24.1 9.3 31 10.4 ENE 20 28 11 15 1017.0 1016.2 0.0
23/10:00am 27.1 23.2 10.7 35 9.3 ENE 22 30 12 16 1017.3 1016.5 0.0
23/09:30am 26.0 21.8 11.0 39 8.5 ENE 24 30 13 16 1017.4 1016.6 0.0
23/09:00am 24.6 21.0 11.9 45 7.3 E 22 28 12 15 1017.4 1016.6 0.0
23/08:30am 23.2 20.2 13.7 55 5.6 E 22 32 12 17 1017.2 1016.4 0.0
23/08:00am 21.3 17.5 13.7 62 4.4 ESE 26 35 14 19 1017.6 1016.8 0.0
23/07:30am 19.9 16.6 14.0 69 3.4 SE 24 30 13 16 1017.5 1016.7 0.0
23/07:00am 19.6 17.1 14.2 71 3.1 SE 20 24 11 13 1017.3 1016.5 0.0
23/06:30am 19.2 16.7 14.2 73 2.9 SE 20 30 11 16 1016.9 1016.1 0.0
23/06:00am 18.7 16.9 14.4 76 2.5 SE 17 20 9 11 1016.6 1015.9 0.0
23/05:30am 19.3 17.3 13.9 71 3.1 SE 17 22 9 12 1016.3 1015.6 0.0
23/05:00am 19.5 17.5 13.9 70 3.2 ESE 17 20 9 11 1016.2 1015.5 0.0
23/04:30am 20.1 17.5 13.8 67 3.7 ESE 20 26 11 14 1016.1 1015.3 0.0
23/04:00am 20.1 17.7 13.8 67 3.6 ESE 19 24 10 13 1016.2 1015.5 0.0
23/03:30am 20.0 18.3 13.7 67 3.6 SE 15 17 8 9 1016.3 1015.6 0.0
23/03:00am 20.8 19.1 13.7 64 4.1 SE 15 20 8 11 1016.4 1015.7 0.0
23/02:30am 21.2 18.7 13.6 62 4.4 SE 19 24 10 13 1016.5 1015.8 0.0
23/02:00am 21.5 19.0 13.4 60 4.7 SE 19 24 10 13 1016.5 1015.8 0.0
23/01:30am 22.2 19.4 13.3 57 5.2 SE 20 28 11 15 1016.4 1015.7 0.0
23/01:00am 23.1 19.9 13.0 53 5.8 SE 22 30 12 16 1016.4 1015.7 0.0
23/12:30am 23.7 20.5 13.0 51 6.2 SE 22 28 12 15 1016.5 1015.8 0.0
23/12:00am 24.1 20.5 13.0 50 6.5 SE 24 32 13 17 1016.6 1015.9 0.0
 
Date/Time
WST
Temp
°C
App
Temp
°C
Dew
Point
Rel
Hum
%
Delta-T
°C
Wind Press
QNH
hPa
Press
MSL
hPa
Rain
since 9 am
mm
Dir
 
Spd
km/h
Gust
km/h
Spd
kts
Gust
kts
22/11:30pm 24.2 21.8 13.7 52 6.2 SSE 19 24 10 13 1017.0 1016.2 0.0
22/11:00pm 24.7 22.1 13.9 51 6.4 SE 20 26 11 14 1017.0 1016.2 0.0
22/10:30pm 24.8 22.9 14.3 52 6.3 SSE 17 20 9 11 1017.4 1016.6 0.0
22/10:00pm 24.8 23.2 14.0 51 6.4 SE 15 20 8 11 1017.2 1016.4 0.0
22/09:30pm 25.0 23.4 12.9 47 7.1 SW 13 15 7 8 1017.4 1016.6 0.0
22/09:00pm 24.8 23.1 12.4 46 7.2 S 13 15 7 8 1017.3 1016.5 0.0
22/08:30pm 25.0 24.0 13.5 48 6.8 W 11 11 6 6 1017.2 1016.4 0.0
22/08:00pm 25.3 24.5 12.9 46 7.2 W 9 11 5 6 1017.0 1016.2 0.0
22/07:30pm 25.3 25.0 13.2 47 7.1 W 7 9 4 5 1016.8 1016.0 0.0
22/07:00pm 26.3 25.3 12.4 42 8.1 W 9 9 5 5 1016.3 1015.6 0.0
22/06:30pm 26.3 25.1 12.7 43 7.9 W 11 13 6 7 1016.2 1015.5 0.0
22/06:00pm 26.7 25.7 12.4 41 8.3 W 9 13 5 7 1016.1 1015.3 0.0
22/05:30pm 28.1 26.4 11.2 35 9.7 NW 11 15 6 8 1015.7 1014.9 0.0
22/05:00pm 29.7 28.9 11.7 33 10.5 W 7 13 4 7 1015.4 1014.6 0.0
22/04:30pm 30.7 29.7 11.1 30 11.4 SSW 7 9 4 5 1015.0 1014.2 0.0
22/04:00pm 31.4 30.0 9.6 26 12.4 S 7 11 4 6 1014.9 1014.1 0.0
22/03:30pm 31.4 29.4 10.2 27 12.2 ESE 11 17 6 9 1014.7 1013.9 0.0
22/03:00pm 31.4 29.3 9.6 26 12.4 E 11 17 6 9 1015.0 1014.2 0.0
22/02:30pm 31.6 29.1 9.8 26 12.5 E 13 17 7 9 1015.0 1014.2 0.0
22/02:00pm 31.2 28.5 8.8 25 12.6 ENE 13 19 7 10 1015.3 1014.5 0.0
22/01:30pm 31.3 28.1 10.1 27 12.2 ENE 17 20 9 11 1015.5 1014.7 0.0
22/01:00pm 30.8 27.1 9.6 27 12.0 E 19 26 10 14 1015.9 1015.1 0.0
22/12:30pm 30.7 26.8 9.6 27 12.0 ENE 20 28 11 15 1016.4 1015.7 0.0
22/12:00pm 29.9 26.3 10.5 30 11.1 E 20 30 11 16 1017.1 1016.3 0.0
22/11:30am 28.6 24.2 10.3 32 10.4 E 24 35 13 19 1017.5 1016.7 0.0
22/11:00am 27.7 23.6 11.3 36 9.4 ESE 24 33 13 18 1018.0 1017.2 0.0
22/10:30am 26.3 21.9 11.6 40 8.4 ESE 26 33 14 18 1018.4 1017.6 0.0
22/10:00am 25.6 20.8 11.7 42 8.0 ESE 28 37 15 20 1018.8 1018.0 0.0
22/09:30am 24.5 19.5 12.1 46 7.1 ESE 30 41 16 22 1019.0 1018.2 0.0
22/09:00am 23.9 18.6 12.5 49 6.6 ESE 32 43 17 23 1018.9 1018.1 0.0
22/08:30am 22.4 17.5 12.6 54 5.6 ESE 30 43 16 23 1018.7 1017.9 0.0
22/08:00am 21.5 17.8 13.9 62 4.4 ESE 26 35 14 19 1018.6 1017.8 0.0
22/07:30am 20.6 17.4 14.3 67 3.7 ESE 24 32 13 17 1018.5 1017.7 0.0
22/07:00am 19.4 16.9 14.2 72 3.0 SE 20 26 11 14 1018.4 1017.6 0.0
22/06:30am 19.3 17.2 14.6 74 2.8 ESE 19 26 10 14 1018.1 1017.3 0.0
22/06:00am 19.3 17.0 14.6 74 2.7 SE 20 28 11 15 1017.9 1017.1 0.0
22/05:30am 19.6 16.8 14.4 72 3.0 ESE 22 30 12 16 1017.8 1017.0 0.0
22/05:00am 19.1 16.8 14.6 75 2.6 SE 20 26 11 14 1017.6 1016.8 0.0
22/04:30am 19.2 16.8 14.5 74 2.7 ESE 20 24 11 13 1017.4 1016.6 0.0
22/04:00am 19.1 17.4 14.6 75 2.6 SE 17 24 9 13 1017.6 1016.8 0.0
22/03:30am 19.3 16.6 14.6 74 2.8 ESE 22 30 12 16 1017.3 1016.5 0.0
22/03:00am 19.6 16.8 14.4 72 3.0 SE 22 30 12 16 1017.5 1016.7 0.0
22/02:30am 19.7 17.3 14.5 72 3.0 SE 20 26 11 14 1017.5 1016.7 0.0
22/02:00am 20.0 16.7 14.1 69 3.4 ESE 24 30 13 16 1017.5 1016.7 0.0
22/01:30am 20.4 16.3 13.8 66 3.8 ESE 28 37 15 20 1017.8 1017.0 0.0
22/01:00am 20.6 16.1 13.8 65 3.9 ESE 30 37 16 20 1018.2 1017.4 0.0
22/12:30am 20.7 15.7 13.4 63 4.2 ESE 32 39 17 21 1017.9 1017.1 0.0
22/12:00am 21.0 16.7 13.2 61 4.5 ESE 28 39 15 21 1018.3 1017.5 0.0
 
Date/Time
WST
Temp
°C
App
Temp
°C
Dew
Point
Rel
Hum
%
Delta-T
°C
Wind Press
QNH
hPa
Press
MSL
hPa
Rain
since 9 am
mm
Dir
 
Spd
km/h
Gust
km/h
Spd
kts
Gust
kts
21/11:30pm 20.9 15.9 13.4 62 4.3 ESE 32 43 17 23 1018.6 1017.8 0.0
21/11:00pm 20.8 17.7 13.3 62 4.3 ESE 22 28 12 15 1018.7 1017.9 0.0
21/10:30pm 20.4 17.3 13.4 64 4.0 SE 22 30 12 16 1018.8 1018.0 0.0
21/10:00pm 20.4 15.4 13.4 64 4.0 ESE 32 41 17 22 1018.6 1017.8 0.0
21/09:30pm 19.7 14.8 13.6 68 3.5 SE 32 44 17 24 1018.7 1017.9 0.0
21/09:00pm 20.1 15.0 13.1 64 4.0 SE 32 41 17 22 1019.1 1018.3 0.0
21/08:30pm 20.4 14.5 12.4 60 4.5 SE 35 50 19 27 1019.0 1018.2 0.0
21/08:00pm 20.7 13.8 11.6 56 5.1 SE 39 50 21 27 1018.8 1018.0 0.0
21/07:30pm 21.1 14.8 10.9 52 5.6 SE 35 44 19 24 1019.0 1018.2 0.0
21/07:00pm 21.9 15.0 8.8 43 7.0 SE 35 50 19 27 1018.9 1018.1 0.0
21/06:30pm 22.4 15.8 8.5 41 7.4 SE 33 48 18 26 1018.2 1017.4 0.0
21/06:00pm 22.8 16.4 8.5 40 7.6 SE 32 41 17 22 1018.1 1017.3 0.0
21/05:30pm 24.2 17.9 7.4 34 8.9 SE 30 37 16 20 1018.7 1017.9 0.0
21/05:00pm 24.6 18.3 7.3 33 9.1 SE 30 41 16 22 1018.0 1017.2 0.0
21/04:30pm 25.0 18.3 7.2 32 9.4 SE 32 41 17 22 1017.3 1016.5 0.0
21/04:00pm 25.6 19.4 7.7 32 9.6 SE 30 39 16 21 1016.9 1016.1 0.0
21/03:30pm 26.1 20.2 7.7 31 9.9 SE 28 37 15 20 1017.0 1016.2 0.0
21/03:00pm 27.0 20.7 7.5 29 10.5 SE 30 37 16 20 1016.8 1016.0 0.0
21/02:30pm 27.7 21.6 8.1 29 10.7 SE 30 39 16 21 1016.6 1015.9 0.0
21/02:00pm 27.8 21.7 8.1 29 10.7 SE 30 37 16 20 1016.8 1016.0 0.0
21/01:30pm 28.0 22.2 7.8 28 11.0 SE 28 35 15 19 1016.9 1016.1 0.0
21/01:00pm 28.9 24.4 8.6 28 11.2 SE 22 33 12 18 1017.1 1016.3 0.0
21/12:30pm 29.0 24.8 8.1 27 11.5 E 20 26 11 14 1017.4 1016.6 0.0
21/12:00pm 28.5 22.9 7.1 26 11.5 E 26 33 14 18 1017.8 1017.0 0.0
21/11:30am 28.4 22.5 7.6 27 11.3 E 28 39 15 21 1017.8 1017.0 0.0
21/11:00am 28.5 23.4 7.7 27 11.3 ESE 24 35 13 19 1018.2 1017.4 0.0
21/10:30am 25.7 20.5 8.7 34 9.3 ESE 26 32 14 17 1018.7 1017.9 0.0
21/10:00am 25.5 20.2 8.5 34 9.2 ESE 26 33 14 18 1019.0 1018.2 0.0
21/09:30am 25.0 18.9 8.1 34 9.1 ESE 30 37 16 20 1019.0 1018.2 0.0
21/09:00am 24.2 17.7 8.2 36 8.6 ESE 32 39 17 21 1019.2 1018.4 0.0
21/08:30am 23.5 18.1 8.0 37 8.2 ESE 26 37 14 20 1019.1 1018.3 0.0
21/08:00am 22.6 17.2 8.0 39 7.7 ESE 26 32 14 17 1018.8 1018.0 0.0
21/07:30am 21.3 16.7 8.2 43 6.9 ESE 22 28 12 15 1018.6 1017.8 0.0
21/07:00am 20.4 16.4 8.1 45 6.4 ESE 19 24 10 13 1018.2 1017.4 0.0
21/06:30am 19.8 16.2 8.2 47 6.1 ESE 17 20 9 11 1017.8 1017.0 0.0
21/06:00am 19.7 16.0 8.1 47 6.0 SE 17 20 9 11 1017.6 1016.8 0.0
21/05:30am 20.5 16.8 7.8 44 6.6 SE 17 20 9 11 1017.3 1016.5 0.0
21/05:00am 20.9 16.5 7.5 42 6.9 SE 20 24 11 13 1017.2 1016.4 0.0
21/04:30am 21.0 16.6 7.3 41 7.1 ESE 20 26 11 14 1016.9 1016.1 0.0
21/04:00am 20.9 16.5 7.5 42 6.9 SE 20 24 11 13 1016.6 1015.9 0.0
21/03:30am 21.6 16.4 7.1 39 7.5 ESE 24 32 13 17 1016.5 1015.8 0.0
21/03:00am 21.9 16.3 7.0 38 7.7 ESE 26 32 14 17 1016.5 1015.8 0.0
21/02:30am 22.1 17.5 6.7 37 7.9 ESE 20 26 11 14 1016.4 1015.7 0.0
21/02:00am 22.3 16.9 6.5 36 8.1 ESE 24 32 13 17 1016.3 1015.6 0.0
21/01:30am 22.9 16.7 6.2 34 8.6 SE 28 35 15 19 1016.3 1015.6 0.0
21/01:00am 23.5 18.5 6.3 33 8.9 SE 22 30 12 16 1016.8 1016.0 0.0
21/12:30am 23.1 18.6 6.8 35 8.5 SSE 20 24 11 13 1017.1 1016.3 0.0
21/12:00am 21.8 18.8 9.3 45 6.7 SSE 15 19 8 10 1017.3 1016.5 0.0
 
Date/Time
WST
Temp
°C
App
Temp
°C
Dew
Point
Rel
Hum
%
Delta-T
°C
Wind Press
QNH
hPa
Press
MSL
hPa
Rain
since 9 am
mm
Dir
 
Spd
km/h
Gust
km/h
Spd
kts
Gust
kts
20/11:30pm 21.4 19.3 11.1 52 5.7 S 13 15 7 8 1017.4 1016.6 0.0
20/11:00pm 22.2 21.5 11.9 52 5.8 SW 7 9 4 5 1017.6 1016.8 0.0
20/10:30pm 21.9 21.2 13.3 58 5.0 WSW 9 9 5 5 1017.8 1017.0 0.0
20/10:00pm 22.0 21.6 12.5 54 5.4 WSW 6 7 3 4 1017.9 1017.1 0.0
20/09:30pm 22.4 21.5 12.6 54 5.6 WSW 9 13 5 7 1018.0 1017.2 0.0
20/09:00pm 22.7 22.5 12.9 54 5.7 N 6 7 3 4 1018.1 1017.3 0.0
20/08:30pm 23.2 22.4 12.8 52 6.0 N 9 11 5 6 1017.7 1016.9 0.0
20/08:00pm 24.1 23.6 12.7 49 6.6 W 7 9 4 5 1017.5 1016.7 0.0
20/07:30pm 24.1 23.2 12.7 49 6.6 W 9 11 5 6 1017.2 1016.4 0.0
20/07:00pm 24.4 23.3 12.0 46 7.1 W 9 13 5 7 1016.8 1016.0 0.0
20/06:30pm 25.2 23.8 11.0 41 8.0 NW 9 11 5 6 1016.5 1015.8 0.0
20/06:00pm 25.7 23.4 10.3 38 8.6 NNW 13 17 7 9 1016.2 1015.5 0.0
20/05:30pm 27.2 25.5 10.0 34 9.7 E 9 13 5 7 1015.9 1015.1 0.0
20/05:00pm 28.7 26.8 8.9 29 11.0 SSE 9 9 5 5 1015.7 1014.9 0.0
20/04:30pm 30.0 27.6 7.2 24 12.4 SSE 9 11 5 6 1015.5 1014.7 0.0
20/04:00pm 30.3 27.3 6.2 22 12.9 SSE 11 13 6 7 1015.4 1014.6 0.0
20/03:30pm 30.2 28.0 6.1 22 12.9 SSE 7 11 4 6 1015.3 1014.5 0.0
20/03:00pm 30.3 27.3 6.2 22 12.9 SSE 11 15 6 8 1015.4 1014.6 0.0
20/02:30pm 30.7 28.1 5.9 21 13.3 SSE 9 15 5 8 1015.3 1014.5 0.0
20/02:00pm 30.5 26.9 5.0 20 13.4 E 13 22 7 12 1015.1 1014.3 0.0

Other Formats:

Comma delimited format used in spreadsheet applications
http://www.bom.gov.au/fwo/IDW60801/IDW60801.99311.axf

JavaScript Object Notation format (JSON) in row-major order
http://www.bom.gov.au/fwo/IDW60801/IDW60801.99311.json